Ocean Gordon — VZB046 — position and weather

sailwx.info

Track history (hours):
 
Tides and Currents Weather Stations Pressure Air Temp Water Temp Dewpoint Dewpoint Depression Visibility Wind Speed Wind Dir Waves Ship Positions

Ocean Gordon

Last reported at 2018-Feb-18 01:30 UTC. Time now 2018-Feb-18 01:49 UTC.
Position N 49°10' W 122°59'.

Length 15 m; draft 2.3 m.

Type: Tug. MMSI: 316022038.

Date/timePositionNaut miles runAvg speedWind from/ knotsBaromVisibWave heightAir tempDewpointWater temp
2018-Feb-18 01:30N 49°10' W 122°59'3 5.4
2018-Feb-18 01:00N 49°08' W 123°03'0 0.4
2018-Feb-18 00:30N 49°08' W 123°03'0 1.0
2018-Feb-18 00:00N 49°08' W 123°03'2 4.2
2018-Feb-17 23:30N 49°07' W 123°06'2 4.1
2018-Feb-17 22:58N 49°07' W 123°09'2 3.9
2018-Feb-17 22:30N 49°07' W 123°12'2 3.7
2018-Feb-17 21:58N 49°08' W 123°15'2 3.8
2018-Feb-17 21:30N 49°07' W 123°17'2 3.2
2018-Feb-17 20:59N 49°06' W 123°20'2 4.9
2018-Feb-17 20:29N 49°08' W 123°23'3 5.5
2018-Feb-17 20:00N 49°09' W 123°26'3 5.6
2018-Feb-17 19:30N 49°11' W 123°29'3 5.1
2018-Feb-17 18:58N 49°12' W 123°33'2 4.9
2018-Feb-17 18:30N 49°14' W 123°36'5 4.3
2018-Feb-17 17:21N 49°17' W 123°42'1 3.7
2018-Feb-17 16:59N 49°17' W 123°44'2 3.4
2018-Feb-17 16:28N 49°18' W 123°46'27 4.2
2018-Feb-17 09:55N 49°34' W 124°21'4 4.6
2018-Feb-17 09:05N 49°36' W 124°26'2 4.5
2018-Feb-17 08:38N 49°37' W 124°28'1 4.5
2018-Feb-17 08:25N 49°38' W 124°29'2 4.6
2018-Feb-17 07:59N 49°39' W 124°31'2 4.6
2018-Feb-17 07:28N 49°41' W 124°33'1 0.3
2018-Feb-17 05:45N 49°42' W 124°33'0 0.0
2018-Feb-17 05:20N 49°42' W 124°33'0 0.1
2018-Feb-17 04:58N 49°42' W 124°33'0 0.0
2018-Feb-17 04:17N 49°42' W 124°33'0 0.0
2018-Feb-17 04:00N 49°42' W 124°33'0 0.0
2018-Feb-17 03:24N 49°42' W 124°33'0 0.0
2018-Feb-17 02:37N 49°42' W 124°33'0 0.0
2018-Feb-17 02:22N 49°42' W 124°33'0 0.0
2018-Feb-17 01:56N 49°42' W 124°33'0 0.7
2018-Feb-17 01:22N 49°41' W 124°33'3 7.9
2018-Feb-17 00:59N 49°39' W 124°30'4 8.0
2018-Feb-17 00:28N 49°36' W 124°26'30 7.7
2018-Feb-16 20:31N 49°19' W 123°47'1 8.1
2018-Feb-16 20:23N 49°19' W 123°45'3 8.1
2018-Feb-16 19:57N 49°17' W 123°41'4 8.0
2018-Feb-16 19:29N 49°14' W 123°36'4 7.8
2018-Feb-16 19:00N 49°12' W 123°31'4 7.3
2018-Feb-16 18:30N 49°10' W 123°27'4 7.3
2018-Feb-16 18:00N 49°08' W 123°22'3 5.7
2018-Feb-16 17:30N 49°07' W 123°18'0 0.4
2018-Feb-16 17:00N 49°07' W 123°18'1 1.2
2018-Feb-16 16:30N 49°07' W 123°19'2 3.4
2018-Feb-16 16:00N 49°08' W 123°21'2 3.5
2018-Feb-16 15:28N 49°09' W 123°23'2 3.3
2018-Feb-16 15:00N 49°10' W 123°26'2 3.2
2018-Feb-16 14:30N 49°10' W 123°28'2 3.1
2018-Feb-16 14:00N 49°11' W 123°30'2 3.4
2018-Feb-16 13:30N 49°12' W 123°32'2 3.6
2018-Feb-16 13:00N 49°13' W 123°34'2 3.8
2018-Feb-16 12:22N 49°14' W 123°37'1 3.4
2018-Feb-16 12:00N 49°15' W 123°39'2 3.6
2018-Feb-16 11:30N 49°16' W 123°41'2 3.6
2018-Feb-16 10:56N 49°17' W 123°44'2 3.5
2018-Feb-16 10:29N 49°18' W 123°46'2 3.4
2018-Feb-16 09:50N 49°19' W 123°48'25 4.2
2018-Feb-16 03:53N 49°34' W 124°20'4 4.6
2018-Feb-16 03:02N 49°36' W 124°26'0 4.7
2018-Feb-16 02:56N 49°36' W 124°26'3 4.6
2018-Feb-16 02:12N 49°38' W 124°30'1 4.6
2018-Feb-16 01:59N 49°39' W 124°31'3 1.0
2018-Feb-15 22:50N 49°42' W 124°33'0 0.0
2018-Feb-15 21:34N 49°42' W 124°33'0 0.0
2018-Feb-15 21:19N 49°42' W 124°33'4 2.7
2018-Feb-15 20:00N 49°39' W 124°30'3 6.3
2018-Feb-15 19:30N 49°36' W 124°27'30 5.6
2018-Feb-15 14:10N 49°20' W 123°48'1 6.0
2018-Feb-15 13:58N 49°19' W 123°47'3 6.0
2018-Feb-15 13:29N 49°18' W 123°43'3 6.2
2018-Feb-15 13:00N 49°16' W 123°40'3 6.2
2018-Feb-15 12:28N 49°14' W 123°36'3 6.4
2018-Feb-15 12:00N 49°12' W 123°32'3 6.3
2018-Feb-15 11:30N 49°10' W 123°28'3 6.2
2018-Feb-15 10:59N 49°08' W 123°24'3 6.2
2018-Feb-15 10:30N 49°07' W 123°20'3 5.4
2018-Feb-15 09:58N 49°07' W 123°16'3 5.7
2018-Feb-15 09:29N 49°07' W 123°12'3 6.3
2018-Feb-15 09:00N 49°07' W 123°07'4 7.0
2018-Feb-15 08:30N 49°09' W 123°03'1 1.7
2018-Feb-15 08:00N 49°09' W 123°02'5 9.2
2018-Feb-15 07:30N 49°11' W 122°55'4 8.4
2018-Feb-15 07:00N 49°13' W 122°50'0 0.5
2018-Feb-15 06:30N 49°13' W 122°49'3 6.0
2018-Feb-15 06:00N 49°14' W 122°45'3 6.0
2018-Feb-15 05:30N 49°17' W 122°42'2 4.0
2018-Feb-15 05:00N 49°17' W 122°40'1 2.8
2018-Feb-15 04:30N 49°17' W 122°42'3 6.5
2018-Feb-15 03:59N 49°14' W 122°45'3 6.9
2018-Feb-15 03:30N 49°13' W 122°49'3 6.6
2018-Feb-15 03:00N 49°12' W 122°54'4 7.0
2018-Feb-15 02:30N 49°09' W 122°57'1 2.0
2018-Feb-15 02:00N 49°09' W 122°59'3 6.4
2018-Feb-15 01:30N 49°12' W 122°56'4 7.9
2018-Feb-15 01:00N 49°12' W 123°02'4 7.9
2018-Feb-15 00:30N 49°12' W 123°08'1 1.7
2018-Feb-14 23:59N 49°12' W 123°09'1 1.5
2018-Feb-14 23:26N 49°12' W 123°08'1 2.8
2018-Feb-14 23:00N 49°12' W 123°06'1 2.8
2018-Feb-14 22:30N 49°12' W 123°08'2 3.6
2018-Feb-14 22:00N 49°12' W 123°06'1 1.8
2018-Feb-14 21:30N 49°12' W 123°07'1 1.7
2018-Feb-14 21:00N 49°12' W 123°08'0 0.0
2018-Feb-14 20:30N 49°12' W 123°08'0 0.0
2018-Feb-14 20:00N 49°12' W 123°08'0 0.0
2018-Feb-14 19:30N 49°12' W 123°08'0 0.0
2018-Feb-14 19:00N 49°12' W 123°08'0 0.0
2018-Feb-14 18:30N 49°12' W 123°08'1 2.8
2018-Feb-14 18:00N 49°12' W 123°06'0 0.9
2018-Feb-14 17:30N 49°12' W 123°05'0 0.8
2018-Feb-14 17:00N 49°12' W 123°05'0 0.8
2018-Feb-14 16:30N 49°12' W 123°05'1 2.2
2018-Feb-14 16:00N 49°12' W 123°07'1 2.2
2018-Feb-14 15:29N 49°12' W 123°09'0 0.6
2018-Feb-14 14:59N 49°12' W 123°09'1 1.9
2018-Feb-14 14:30N 49°12' W 123°08'3 5.5
2018-Feb-14 14:00N 49°12' W 123°04'3 6.3
2018-Feb-14 13:30N 49°11' W 122°60'3 5.4
2018-Feb-14 13:00N 49°12' W 122°55'3 6.2
2018-Feb-14 12:30N 49°09' W 122°58'2 4.5
2018-Feb-14 12:00N 49°09' W 123°02'2 3.8
2018-Feb-14 11:30N 49°08' W 123°04'4 8.5
2018-Feb-14 11:00N 49°07' W 123°10'4 7.7
2018-Feb-14 10:30N 49°07' W 123°16'4 7.5
2018-Feb-14 09:57N 49°03' W 123°19'4 9.1
2018-Feb-14 09:30N 48°59' W 123°18'5 9.3
2018-Feb-14 09:00N 48°55' W 123°18'4 8.4
2018-Feb-14 08:30N 48°51' W 123°21'4 8.1
2018-Feb-14 08:00N 48°47' W 123°21'4 8.1
2018-Feb-14 07:30N 48°44' W 123°25'4 8.1
2018-Feb-14 07:00N 48°42' W 123°30'4 8.7
2018-Feb-14 06:30N 48°37' W 123°31'1 2.9
2018-Feb-14 06:00N 48°36' W 123°31'4 8.9
2018-Feb-14 05:30N 48°40' W 123°30'4 8.3
2018-Feb-14 05:00N 48°43' W 123°25'4 8.9
2018-Feb-14 04:30N 48°47' W 123°21'5 9.7
2018-Feb-14 04:00N 48°52' W 123°21'5 8.5
2018-Feb-14 03:26N 48°56' W 123°18'5 9.6
2018-Feb-14 02:56N 49°01' W 123°19'4 9.8
2018-Feb-14 02:30N 49°05' W 123°19'5 9.8
2018-Feb-14 02:00N 49°08' W 123°13'510.0
2018-Feb-14 01:30N 49°07' W 123°05'2 4.9
2018-Feb-14 01:00N 49°09' W 123°03'1 1.2
2018-Feb-14 00:30N 49°09' W 123°02'0 0.8
2018-Feb-14 00:00N 49°09' W 123°01'0 1.0
2018-Feb-13 23:30N 49°09' W 123°00'2 4.4
2018-Feb-13 23:00N 49°09' W 122°57'3 6.3
2018-Feb-13 22:30N 49°12' W 122°54'3 6.3
2018-Feb-13 22:00N 49°13' W 122°50'3 6.1
2018-Feb-13 21:30N 49°14' W 122°46'2 4.8
2018-Feb-13 21:00N 49°16' W 122°43'3 5.4
2018-Feb-13 20:30N 49°17' W 122°40'0 0.0
2018-Feb-13 19:59N 49°17' W 122°40'3 5.4
2018-Feb-13 19:30N 49°16' W 122°43'2 4.1
2018-Feb-13 19:00N 49°14' W 122°45'0 0.6
2018-Feb-13 18:30N 49°14' W 122°45'3 5.3
2018-Feb-13 18:00N 49°13' W 122°49'3 5.5
2018-Feb-13 17:30N 49°13' W 122°53'4 7.1
2018-Feb-13 17:00N 49°11' W 122°58'4 7.2
2018-Feb-13 16:30N 49°12' W 123°03'3 6.5
2018-Feb-13 16:00N 49°12' W 123°08'0 0.0
2018-Feb-13 15:29N 49°12' W 123°08'0 0.0
2018-Feb-13 14:59N 49°12' W 123°08'0 0.0
2018-Feb-13 14:29N 49°12' W 123°08'0 0.0
2018-Feb-13 14:00N 49°12' W 123°08'0 0.0
2018-Feb-13 13:28N 49°12' W 123°08'0 0.0
2018-Feb-13 13:00N 49°12' W 123°08'0 0.0
2018-Feb-13 12:30N 49°12' W 123°08'0 0.0
2018-Feb-13 12:00N 49°12' W 123°08'0 0.0
2018-Feb-13 11:30N 49°12' W 123°08'0 0.0
2018-Feb-13 11:00N 49°12' W 123°08'0 0.0
2018-Feb-13 10:30N 49°12' W 123°08'0 0.0
2018-Feb-13 10:00N 49°12' W 123°08'0 0.0
2018-Feb-13 09:29N 49°12' W 123°08'0 0.0
2018-Feb-13 09:00N 49°12' W 123°08'0 0.0
2018-Feb-13 08:30N 49°12' W 123°08'0 0.0
2018-Feb-13 08:00N 49°12' W 123°08'0 0.0
2018-Feb-13 07:30N 49°12' W 123°08'0 0.0
2018-Feb-13 07:00N 49°12' W 123°08'0 0.0
2018-Feb-13 06:30N 49°12' W 123°08'0 0.0
2018-Feb-13 06:00N 49°12' W 123°08'0 0.0
2018-Feb-13 05:29N 49°12' W 123°08'0 0.0
2018-Feb-13 05:00N 49°12' W 123°08'0 0.0
2018-Feb-13 04:30N 49°12' W 123°08'0 0.0
2018-Feb-13 03:59N 49°12' W 123°08'0 0.0
2018-Feb-13 03:30N 49°12' W 123°08'0 0.0
2018-Feb-13 02:56N 49°12' W 123°08'0 0.0
2018-Feb-13 02:30N 49°12' W 123°08'0 0.0
2018-Feb-13 01:57N 49°12' W 123°08'0 0.0
2018-Feb-13 01:25N 49°12' W 123°08'0 0.0
2018-Feb-13 01:00N 49°12' W 123°08'0 0.0
2018-Feb-13 00:30N 49°12' W 123°08'0 0.0
2018-Feb-13 00:00N 49°12' W 123°08'0 0.0
2018-Feb-12 23:30N 49°12' W 123°08'0 0.0
2018-Feb-12 23:00N 49°12' W 123°08'0 0.0
2018-Feb-12 22:30N 49°12' W 123°08'0 0.0
2018-Feb-12 22:00N 49°12' W 123°08'0 0.0
2018-Feb-12 21:30N 49°12' W 123°08'0 0.0
2018-Feb-12 20:59N 49°12' W 123°08'0 0.0
2018-Feb-12 20:30N 49°12' W 123°08'0 0.0
2018-Feb-12 20:00N 49°12' W 123°08'0 0.0
2018-Feb-12 19:29N 49°12' W 123°08'0 0.0
2018-Feb-12 19:00N 49°12' W 123°08'0 0.0
2018-Feb-12 18:30N 49°12' W 123°08'0 0.0
2018-Feb-12 18:00N 49°12' W 123°08'0 0.0
2018-Feb-12 17:30N 49°12' W 123°08'0 0.0
2018-Feb-12 17:00N 49°12' W 123°08'0 0.0
2018-Feb-12 16:30N 49°12' W 123°08'0 0.0
2018-Feb-12 16:00N 49°12' W 123°08'0 0.0
2018-Feb-12 15:30N 49°12' W 123°08'0 0.0
2018-Feb-12 15:00N 49°12' W 123°08'0 0.0
2018-Feb-12 14:30N 49°12' W 123°08'0 0.0
2018-Feb-12 14:00N 49°12' W 123°08'0 0.0
2018-Feb-12 13:30N 49°12' W 123°08'0 0.0
2018-Feb-12 13:00N 49°12' W 123°08'0 0.0
2018-Feb-12 12:30N 49°12' W 123°08'0 0.0
2018-Feb-12 11:59N 49°12' W 123°08'0 0.0
2018-Feb-12 11:30N 49°12' W 123°08'0 0.0
2018-Feb-12 10:58N 49°12' W 123°08'0 0.0
2018-Feb-12 10:30N 49°12' W 123°08'0 0.0
2018-Feb-12 09:59N 49°12' W 123°08'0 0.0
2018-Feb-12 09:30N 49°12' W 123°08'0 0.0
2018-Feb-12 09:00N 49°12' W 123°08'0 0.0
2018-Feb-12 08:28N 49°12' W 123°08'0 0.0
2018-Feb-12 08:00N 49°12' W 123°08'0 0.0
2018-Feb-12 07:30N 49°12' W 123°08'0 0.0
2018-Feb-12 07:00N 49°12' W 123°08'0 0.0
2018-Feb-12 06:30N 49°12' W 123°08'0 0.0
2018-Feb-12 06:00N 49°12' W 123°08'0 0.0
2018-Feb-12 05:29N 49°12' W 123°08'0 0.0
2018-Feb-12 05:00N 49°12' W 123°08'0 0.0
2018-Feb-12 04:30N 49°12' W 123°08'0 0.0
2018-Feb-12 04:00N 49°12' W 123°08'0 0.0
2018-Feb-12 03:30N 49°12' W 123°08'0 0.0
2018-Feb-12 02:58N 49°12' W 123°08'0 0.0
2018-Feb-12 02:30N 49°12' W 123°08'0 0.0
2018-Feb-12 02:00N 49°12' W 123°08'0 0.0
2018-Feb-12 01:30N 49°12' W 123°08'0 0.0
2018-Feb-12 01:00N 49°12' W 123°08'0 0.0
2018-Feb-12 00:30N 49°12' W 123°08'0 0.0
2018-Feb-12 00:00N 49°12' W 123°08'0 0.0
2018-Feb-11 23:30N 49°12' W 123°08'0 0.0
2018-Feb-11 23:00N 49°12' W 123°08'0 0.0
2018-Feb-11 22:30N 49°12' W 123°08'0 0.0
2018-Feb-11 22:00N 49°12' W 123°08'0 0.0
2018-Feb-11 21:30N 49°12' W 123°08'0 0.0
2018-Feb-11 21:00N 49°12' W 123°08'0 0.0
2018-Feb-11 20:30N 49°12' W 123°08'0 0.0
2018-Feb-11 19:59N 49°12' W 123°08'0 0.0
2018-Feb-11 19:30N 49°12' W 123°08'0 0.0
2018-Feb-11 19:00N 49°12' W 123°08'0 0.0
2018-Feb-11 18:29N 49°12' W 123°08'0 0.0
2018-Feb-11 18:00N 49°12' W 123°08'0 0.0
2018-Feb-11 17:29N 49°12' W 123°08'0 0.0
2018-Feb-11 16:58N 49°12' W 123°08'0 0.0
2018-Feb-11 16:28N 49°12' W 123°08'0 0.0
2018-Feb-11 16:00N 49°12' W 123°08'0 0.0
2018-Feb-11 15:30N 49°12' W 123°08'0 0.0
2018-Feb-11 14:59N 49°12' W 123°08'0 0.0
2018-Feb-11 14:28N 49°12' W 123°08'0 0.0
2018-Feb-11 14:00N 49°12' W 123°08'0 0.0
2018-Feb-11 13:30N 49°12' W 123°08'0 0.0
2018-Feb-11 13:00N 49°12' W 123°08'0 0.0
2018-Feb-11 12:30N 49°12' W 123°08'0 0.0
2018-Feb-11 12:00N 49°12' W 123°08'0 0.0
2018-Feb-11 11:30N 49°12' W 123°08'0 0.0
2018-Feb-11 11:00N 49°12' W 123°08'0 0.0
2018-Feb-11 10:30N 49°12' W 123°08'0 0.0
2018-Feb-11 10:00N 49°12' W 123°08'0 0.0
2018-Feb-11 09:30N 49°12' W 123°08'0 0.0
2018-Feb-11 09:00N 49°12' W 123°08'0 0.0
2018-Feb-11 08:30N 49°12' W 123°08'0 0.0
2018-Feb-11 07:59N 49°12' W 123°08'0 0.0
2018-Feb-11 07:30N 49°12' W 123°08'0 0.0
2018-Feb-11 07:00N 49°12' W 123°08'0 0.0
2018-Feb-11 06:30N 49°12' W 123°08'0 0.0
2018-Feb-11 05:59N 49°12' W 123°08'1 2.9
2018-Feb-11 05:30N 49°13' W 123°10'4 8.0
2018-Feb-11 05:00N 49°15' W 123°15'1 2.5
2018-Feb-11 04:30N 49°15' W 123°17'3 6.2
2018-Feb-11 04:00N 49°14' W 123°13'3 6.3
2018-Feb-11 03:28N 49°12' W 123°08'3 5.5
2018-Feb-11 03:00N 49°12' W 123°04'1 1.3
2018-Feb-11 02:30N 49°12' W 123°05'3 5.1
2018-Feb-11 02:00N 49°12' W 123°09'3 7.1
2018-Feb-11 01:30N 49°14' W 123°14'3 4.9
2018-Feb-11 00:59N 49°14' W 123°18'5 9.8
2018-Feb-11 00:30N 49°09' W 123°19'5 9.6
2018-Feb-11 00:00N 49°04' W 123°20'5 9.4
2018-Feb-10 23:28N 48°59' W 123°19'5 9.5
2018-Feb-10 22:58N 48°55' W 123°18'3 7.3
2018-Feb-10 22:30N 48°51' W 123°20'3 6.6
2018-Feb-10 22:00N 48°48' W 123°21'5 9.1
2018-Feb-10 21:30N 48°44' W 123°24'5 9.7
2018-Feb-10 21:00N 48°41' W 123°30'5 9.8
2018-Feb-10 20:30N 48°36' W 123°31'1 2.3
2018-Feb-10 20:00N 48°35' W 123°31'3 5.2
2018-Feb-10 19:30N 48°38' W 123°30'4 7.3
2018-Feb-10 19:00N 48°41' W 123°30'4 7.4
2018-Feb-10 18:30N 48°44' W 123°25'4 7.3
2018-Feb-10 18:00N 48°46' W 123°22'4 7.5
2018-Feb-10 17:29N 48°50' W 123°21'2 4.9
2018-Feb-10 17:00N 48°52' W 123°19'3 5.6
2018-Feb-10 16:30N 48°55' W 123°18'3 6.9
2018-Feb-10 16:00N 48°58' W 123°19'3 6.9
2018-Feb-10 15:30N 49°02' W 123°19'3 6.9
2018-Feb-10 15:00N 49°05' W 123°20'3 5.8
2018-Feb-10 14:29N 49°07' W 123°17'3 6.2
2018-Feb-10 13:58N 49°07' W 123°12'3 6.8
2018-Feb-10 13:29N 49°07' W 123°07'3 6.5
2018-Feb-10 13:00N 49°09' W 123°03'1 2.9
2018-Feb-10 12:30N 49°09' W 123°01'4 7.7
2018-Feb-10 12:00N 49°11' W 122°55'4 7.1
2018-Feb-10 11:30N 49°13' W 122°51'4 7.7
2018-Feb-10 11:00N 49°14' W 122°46'3 7.1
2018-Feb-10 10:30N 49°17' W 122°42'2 3.2
2018-Feb-10 10:00N 49°17' W 122°40'3 6.6
2018-Feb-10 09:30N 49°15' W 122°44'3 6.3
2018-Feb-10 08:59N 49°13' W 122°48'1 2.5
2018-Feb-10 08:30N 49°13' W 122°50'4 7.8
2018-Feb-10 07:59N 49°15' W 122°44'3 5.6
2018-Feb-10 07:30N 49°17' W 122°42'2 4.5
2018-Feb-10 07:00N 49°19' W 122°40'1 1.4
2018-Feb-10 06:30N 49°18' W 122°40'2 3.4
2018-Feb-10 06:00N 49°17' W 122°42'3 5.4
2018-Feb-10 05:30N 49°15' W 122°44'3 4.9
2018-Feb-10 04:57N 49°13' W 122°48'2 5.0
2018-Feb-10 04:30N 49°13' W 122°51'2 4.4
2018-Feb-10 03:59N 49°12' W 122°54'2 4.4
2018-Feb-10 03:30N 49°12' W 122°57'2 3.7
2018-Feb-10 03:00N 49°11' W 123°00'3 5.9
2018-Feb-10 02:28N 49°12' W 123°05'3 5.6
2018-Feb-10 02:00N 49°12' W 123°09'3 5.1
2018-Feb-10 01:30N 49°13' W 123°12'3 5.2
2018-Feb-10 01:00N 49°15' W 123°15'0 0.3
2018-Feb-10 00:30N 49°15' W 123°16'4 8.8
2018-Feb-10 00:00N 49°13' W 123°10'5 9.3
2018-Feb-09 23:30N 49°12' W 123°03'4 8.1
2018-Feb-09 23:00N 49°12' W 122°57'1 5.4
2018-Feb-09 22:46N 49°11' W 122°55'1 0.2
2018-Feb-09 19:30N 49°11' W 122°55'24 4.8
2018-Feb-09 14:30N 49°13' W 123°32'6 5.6
2018-Feb-09 13:30N 49°16' W 123°39'11 1.1
2018-Feb-09 03:30N 49°17' W 123°22'18 4.0
2018-Feb-08 23:00N 49°11' W 122°55'8 1.7
2018-Feb-08 18:30N 49°07' W 123°06'6 4.1
2018-Feb-08 17:00N 49°07' W 123°15'2 4.2
2018-Feb-08 16:30N 49°06' W 123°18'1 2.5
2018-Feb-08 16:00N 49°06' W 123°20'10 4.1
2018-Feb-08 13:30N 49°12' W 123°33'  
Track history (hours):
 
Tides and Currents Weather Stations Pressure Air Temp Water Temp Dewpoint Dewpoint Depression Visibility Wind Speed Wind Dir Waves Ship Positions

Ocean Gordon

Last reported at 2018-Feb-18 01:30 UTC. Time now 2018-Feb-18 01:49 UTC.
Position N 49°10' W 122°59'.

Length 15 m; draft 2.3 m.

Type: Tug. MMSI: 316022038.

Date/timePositionNaut miles runAvg speedWind from/ knotsBaromVisibWave heightAir tempDewpointWater temp
2018-Feb-18 01:30N 49°10' W 122°59'3 5.4
2018-Feb-18 01:00N 49°08' W 123°03'0 0.4
2018-Feb-18 00:30N 49°08' W 123°03'0 1.0
2018-Feb-18 00:00N 49°08' W 123°03'2 4.2
2018-Feb-17 23:30N 49°07' W 123°06'2 4.1
2018-Feb-17 22:58N 49°07' W 123°09'2 3.9
2018-Feb-17 22:30N 49°07' W 123°12'2 3.7
2018-Feb-17 21:58N 49°08' W 123°15'2 3.8
2018-Feb-17 21:30N 49°07' W 123°17'2 3.2
2018-Feb-17 20:59N 49°06' W 123°20'2 4.9
2018-Feb-17 20:29N 49°08' W 123°23'3 5.5
2018-Feb-17 20:00N 49°09' W 123°26'3 5.6
2018-Feb-17 19:30N 49°11' W 123°29'3 5.1
2018-Feb-17 18:58N 49°12' W 123°33'2 4.9
2018-Feb-17 18:30N 49°14' W 123°36'5 4.3
2018-Feb-17 17:21N 49°17' W 123°42'1 3.7
2018-Feb-17 16:59N 49°17' W 123°44'2 3.4
2018-Feb-17 16:28N 49°18' W 123°46'27 4.2
2018-Feb-17 09:55N 49°34' W 124°21'4 4.6
2018-Feb-17 09:05N 49°36' W 124°26'2 4.5
2018-Feb-17 08:38N 49°37' W 124°28'1 4.5
2018-Feb-17 08:25N 49°38' W 124°29'2 4.6
2018-Feb-17 07:59N 49°39' W 124°31'2 4.6
2018-Feb-17 07:28N 49°41' W 124°33'1 0.3
2018-Feb-17 05:45N 49°42' W 124°33'0 0.0
2018-Feb-17 05:20N 49°42' W 124°33'0 0.1
2018-Feb-17 04:58N 49°42' W 124°33'0 0.0
2018-Feb-17 04:17N 49°42' W 124°33'0 0.0
2018-Feb-17 04:00N 49°42' W 124°33'0 0.0
2018-Feb-17 03:24N 49°42' W 124°33'0 0.0
2018-Feb-17 02:37N 49°42' W 124°33'0 0.0
2018-Feb-17 02:22N 49°42' W 124°33'0 0.0
2018-Feb-17 01:56N 49°42' W 124°33'0 0.7
2018-Feb-17 01:22N 49°41' W 124°33'3 7.9
2018-Feb-17 00:59N 49°39' W 124°30'4 8.0
2018-Feb-17 00:28N 49°36' W 124°26'30 7.7
2018-Feb-16 20:31N 49°19' W 123°47'1 8.1
2018-Feb-16 20:23N 49°19' W 123°45'3 8.1
2018-Feb-16 19:57N 49°17' W 123°41'4 8.0
2018-Feb-16 19:29N 49°14' W 123°36'4 7.8
2018-Feb-16 19:00N 49°12' W 123°31'4 7.3
2018-Feb-16 18:30N 49°10' W 123°27'4 7.3
2018-Feb-16 18:00N 49°08' W 123°22'3 5.7
2018-Feb-16 17:30N 49°07' W 123°18'0 0.4
2018-Feb-16 17:00N 49°07' W 123°18'1 1.2
2018-Feb-16 16:30N 49°07' W 123°19'2 3.4
2018-Feb-16 16:00N 49°08' W 123°21'2 3.5
2018-Feb-16 15:28N 49°09' W 123°23'2 3.3
2018-Feb-16 15:00N 49°10' W 123°26'2 3.2
2018-Feb-16 14:30N 49°10' W 123°28'2 3.1
2018-Feb-16 14:00N 49°11' W 123°30'2 3.4
2018-Feb-16 13:30N 49°12' W 123°32'2 3.6
2018-Feb-16 13:00N 49°13' W 123°34'2 3.8
2018-Feb-16 12:22N 49°14' W 123°37'1 3.4
2018-Feb-16 12:00N 49°15' W 123°39'2 3.6
2018-Feb-16 11:30N 49°16' W 123°41'2 3.6
2018-Feb-16 10:56N 49°17' W 123°44'2 3.5
2018-Feb-16 10:29N 49°18' W 123°46'2 3.4
2018-Feb-16 09:50N 49°19' W 123°48'25 4.2
2018-Feb-16 03:53N 49°34' W 124°20'4 4.6
2018-Feb-16 03:02N 49°36' W 124°26'0 4.7
2018-Feb-16 02:56N 49°36' W 124°26'3 4.6
2018-Feb-16 02:12N 49°38' W 124°30'1 4.6
2018-Feb-16 01:59N 49°39' W 124°31'3 1.0
2018-Feb-15 22:50N 49°42' W 124°33'0 0.0
2018-Feb-15 21:34N 49°42' W 124°33'0 0.0
2018-Feb-15 21:19N 49°42' W 124°33'4 2.7
2018-Feb-15 20:00N 49°39' W 124°30'3 6.3
2018-Feb-15 19:30N 49°36' W 124°27'30 5.6
2018-Feb-15 14:10N 49°20' W 123°48'1 6.0
2018-Feb-15 13:58N 49°19' W 123°47'3 6.0
2018-Feb-15 13:29N 49°18' W 123°43'3 6.2
2018-Feb-15 13:00N 49°16' W 123°40'3 6.2
2018-Feb-15 12:28N 49°14' W 123°36'3 6.4
2018-Feb-15 12:00N 49°12' W 123°32'3 6.3
2018-Feb-15 11:30N 49°10' W 123°28'3 6.2
2018-Feb-15 10:59N 49°08' W 123°24'3 6.2
2018-Feb-15 10:30N 49°07' W 123°20'3 5.4
2018-Feb-15 09:58N 49°07' W 123°16'3 5.7
2018-Feb-15 09:29N 49°07' W 123°12'3 6.3
2018-Feb-15 09:00N 49°07' W 123°07'4 7.0
2018-Feb-15 08:30N 49°09' W 123°03'1 1.7
2018-Feb-15 08:00N 49°09' W 123°02'5 9.2
2018-Feb-15 07:30N 49°11' W 122°55'4 8.4
2018-Feb-15 07:00N 49°13' W 122°50'0 0.5
2018-Feb-15 06:30N 49°13' W 122°49'3 6.0
2018-Feb-15 06:00N 49°14' W 122°45'3 6.0
2018-Feb-15 05:30N 49°17' W 122°42'2 4.0
2018-Feb-15 05:00N 49°17' W 122°40'1 2.8
2018-Feb-15 04:30N 49°17' W 122°42'3 6.5
2018-Feb-15 03:59N 49°14' W 122°45'3 6.9
2018-Feb-15 03:30N 49°13' W 122°49'3 6.6
2018-Feb-15 03:00N 49°12' W 122°54'4 7.0
2018-Feb-15 02:30N 49°09' W 122°57'1 2.0
2018-Feb-15 02:00N 49°09' W 122°59'3 6.4
2018-Feb-15 01:30N 49°12' W 122°56'4 7.9
2018-Feb-15 01:00N 49°12' W 123°02'4 7.9
2018-Feb-15 00:30N 49°12' W 123°08'1 1.7
2018-Feb-14 23:59N 49°12' W 123°09'1 1.5
2018-Feb-14 23:26N 49°12' W 123°08'1 2.8
2018-Feb-14 23:00N 49°12' W 123°06'1 2.8
2018-Feb-14 22:30N 49°12' W 123°08'2 3.6
2018-Feb-14 22:00N 49°12' W 123°06'1 1.8
2018-Feb-14 21:30N 49°12' W 123°07'1 1.7
2018-Feb-14 21:00N 49°12' W 123°08'0 0.0
2018-Feb-14 20:30N 49°12' W 123°08'0 0.0
2018-Feb-14 20:00N 49°12' W 123°08'0 0.0
2018-Feb-14 19:30N 49°12' W 123°08'0 0.0
2018-Feb-14 19:00N 49°12' W 123°08'0 0.0
2018-Feb-14 18:30N 49°12' W 123°08'1 2.8
2018-Feb-14 18:00N 49°12' W 123°06'0 0.9
2018-Feb-14 17:30N 49°12' W 123°05'0 0.8
2018-Feb-14 17:00N 49°12' W 123°05'0 0.8
2018-Feb-14 16:30N 49°12' W 123°05'1 2.2
2018-Feb-14 16:00N 49°12' W 123°07'1 2.2
2018-Feb-14 15:29N 49°12' W 123°09'0 0.6
2018-Feb-14 14:59N 49°12' W 123°09'1 1.9
2018-Feb-14 14:30N 49°12' W 123°08'3 5.5
2018-Feb-14 14:00N 49°12' W 123°04'3 6.3
2018-Feb-14 13:30N 49°11' W 122°60'3 5.4
2018-Feb-14 13:00N 49°12' W 122°55'3 6.2
2018-Feb-14 12:30N 49°09' W 122°58'2 4.5
2018-Feb-14 12:00N 49°09' W 123°02'2 3.8
2018-Feb-14 11:30N 49°08' W 123°04'4 8.5
2018-Feb-14 11:00N 49°07' W 123°10'4 7.7
2018-Feb-14 10:30N 49°07' W 123°16'4 7.5
2018-Feb-14 09:57N 49°03' W 123°19'4 9.1
2018-Feb-14 09:30N 48°59' W 123°18'5 9.3
2018-Feb-14 09:00N 48°55' W 123°18'4 8.4
2018-Feb-14 08:30N 48°51' W 123°21'4 8.1
2018-Feb-14 08:00N 48°47' W 123°21'4 8.1
2018-Feb-14 07:30N 48°44' W 123°25'4 8.1
2018-Feb-14 07:00N 48°42' W 123°30'4 8.7
2018-Feb-14 06:30N 48°37' W 123°31'1 2.9
2018-Feb-14 06:00N 48°36' W 123°31'4 8.9
2018-Feb-14 05:30N 48°40' W 123°30'4 8.3
2018-Feb-14 05:00N 48°43' W 123°25'4 8.9
2018-Feb-14 04:30N 48°47' W 123°21'5 9.7
2018-Feb-14 04:00N 48°52' W 123°21'5 8.5
2018-Feb-14 03:26N 48°56' W 123°18'5 9.6
2018-Feb-14 02:56N 49°01' W 123°19'4 9.8
2018-Feb-14 02:30N 49°05' W 123°19'5 9.8
2018-Feb-14 02:00N 49°08' W 123°13'510.0
2018-Feb-14 01:30N 49°07' W 123°05'2 4.9
2018-Feb-14 01:00N 49°09' W 123°03'1 1.2
2018-Feb-14 00:30N 49°09' W 123°02'0 0.8
2018-Feb-14 00:00N 49°09' W 123°01'0 1.0
2018-Feb-13 23:30N 49°09' W 123°00'2 4.4
2018-Feb-13 23:00N 49°09' W 122°57'3 6.3
2018-Feb-13 22:30N 49°12' W 122°54'3 6.3
2018-Feb-13 22:00N 49°13' W 122°50'3 6.1
2018-Feb-13 21:30N 49°14' W 122°46'2 4.8
2018-Feb-13 21:00N 49°16' W 122°43'3 5.4
2018-Feb-13 20:30N 49°17' W 122°40'0 0.0
2018-Feb-13 19:59N 49°17' W 122°40'3 5.4
2018-Feb-13 19:30N 49°16' W 122°43'2 4.1
2018-Feb-13 19:00N 49°14' W 122°45'0 0.6
2018-Feb-13 18:30N 49°14' W 122°45'3 5.3
2018-Feb-13 18:00N 49°13' W 122°49'3 5.5
2018-Feb-13 17:30N 49°13' W 122°53'4 7.1
2018-Feb-13 17:00N 49°11' W 122°58'4 7.2
2018-Feb-13 16:30N 49°12' W 123°03'3 6.5
2018-Feb-13 16:00N 49°12' W 123°08'0 0.0
2018-Feb-13 15:29N 49°12' W 123°08'0 0.0
2018-Feb-13 14:59N 49°12' W 123°08'0 0.0
2018-Feb-13 14:29N 49°12' W 123°08'0 0.0
2018-Feb-13 14:00N 49°12' W 123°08'0 0.0
2018-Feb-13 13:28N 49°12' W 123°08'0 0.0
2018-Feb-13 13:00N 49°12' W 123°08'0 0.0
2018-Feb-13 12:30N 49°12' W 123°08'0 0.0
2018-Feb-13 12:00N 49°12' W 123°08'0 0.0
2018-Feb-13 11:30N 49°12' W 123°08'0 0.0
2018-Feb-13 11:00N 49°12' W 123°08'0 0.0
2018-Feb-13 10:30N 49°12' W 123°08'0 0.0
2018-Feb-13 10:00N 49°12' W 123°08'0 0.0
2018-Feb-13 09:29N 49°12' W 123°08'0 0.0
2018-Feb-13 09:00N 49°12' W 123°08'0 0.0
2018-Feb-13 08:30N 49°12' W 123°08'0 0.0
2018-Feb-13 08:00N 49°12' W 123°08'0 0.0
2018-Feb-13 07:30N 49°12' W 123°08'0 0.0
2018-Feb-13 07:00N 49°12' W 123°08'0 0.0
2018-Feb-13 06:30N 49°12' W 123°08'0 0.0
2018-Feb-13 06:00N 49°12' W 123°08'0 0.0
2018-Feb-13 05:29N 49°12' W 123°08'0 0.0
2018-Feb-13 05:00N 49°12' W 123°08'0 0.0
2018-Feb-13 04:30N 49°12' W 123°08'0 0.0
2018-Feb-13 03:59N 49°12' W 123°08'0 0.0
2018-Feb-13 03:30N 49°12' W 123°08'0 0.0
2018-Feb-13 02:56N 49°12' W 123°08'0 0.0
2018-Feb-13 02:30N 49°12' W 123°08'0 0.0
2018-Feb-13 01:57N 49°12' W 123°08'0 0.0
2018-Feb-13 01:25N 49°12' W 123°08'0 0.0
2018-Feb-13 01:00N 49°12' W 123°08'0 0.0
2018-Feb-13 00:30N 49°12' W 123°08'0 0.0
2018-Feb-13 00:00N 49°12' W 123°08'0 0.0
2018-Feb-12 23:30N 49°12' W 123°08'0 0.0
2018-Feb-12 23:00N 49°12' W 123°08'0 0.0
2018-Feb-12 22:30N 49°12' W 123°08'0 0.0
2018-Feb-12 22:00N 49°12' W 123°08'0 0.0
2018-Feb-12 21:30N 49°12' W 123°08'0 0.0
2018-Feb-12 20:59N 49°12' W 123°08'0 0.0
2018-Feb-12 20:30N 49°12' W 123°08'0 0.0
2018-Feb-12 20:00N 49°12' W 123°08'0 0.0
2018-Feb-12 19:29N 49°12' W 123°08'0 0.0
2018-Feb-12 19:00N 49°12' W 123°08'0 0.0
2018-Feb-12 18:30N 49°12' W 123°08'0 0.0
2018-Feb-12 18:00N 49°12' W 123°08'0 0.0
2018-Feb-12 17:30N 49°12' W 123°08'0 0.0
2018-Feb-12 17:00N 49°12' W 123°08'0 0.0
2018-Feb-12 16:30N 49°12' W 123°08'0 0.0
2018-Feb-12 16:00N 49°12' W 123°08'0 0.0
2018-Feb-12 15:30N 49°12' W 123°08'0 0.0
2018-Feb-12 15:00N 49°12' W 123°08'0 0.0
2018-Feb-12 14:30N 49°12' W 123°08'0 0.0
2018-Feb-12 14:00N 49°12' W 123°08'0 0.0
2018-Feb-12 13:30N 49°12' W 123°08'0 0.0
2018-Feb-12 13:00N 49°12' W 123°08'0 0.0
2018-Feb-12 12:30N 49°12' W 123°08'0 0.0
2018-Feb-12 11:59N 49°12' W 123°08'0 0.0
2018-Feb-12 11:30N 49°12' W 123°08'0 0.0
2018-Feb-12 10:58N 49°12' W 123°08'0 0.0
2018-Feb-12 10:30N 49°12' W 123°08'0 0.0
2018-Feb-12 09:59N 49°12' W 123°08'0 0.0
2018-Feb-12 09:30N 49°12' W 123°08'0 0.0
2018-Feb-12 09:00N 49°12' W 123°08'0 0.0
2018-Feb-12 08:28N 49°12' W 123°08'0 0.0
2018-Feb-12 08:00N 49°12' W 123°08'0 0.0
2018-Feb-12 07:30N 49°12' W 123°08'0 0.0
2018-Feb-12 07:00N 49°12' W 123°08'0 0.0
2018-Feb-12 06:30N 49°12' W 123°08'0 0.0
2018-Feb-12 06:00N 49°12' W 123°08'0 0.0
2018-Feb-12 05:29N 49°12' W 123°08'0 0.0
2018-Feb-12 05:00N 49°12' W 123°08'0 0.0
2018-Feb-12 04:30N 49°12' W 123°08'0 0.0
2018-Feb-12 04:00N 49°12' W 123°08'0 0.0
2018-Feb-12 03:30N 49°12' W 123°08'0 0.0
2018-Feb-12 02:58N 49°12' W 123°08'0 0.0
2018-Feb-12 02:30N 49°12' W 123°08'0 0.0
2018-Feb-12 02:00N 49°12' W 123°08'0 0.0
2018-Feb-12 01:30N 49°12' W 123°08'0 0.0
2018-Feb-12 01:00N 49°12' W 123°08'0 0.0
2018-Feb-12 00:30N 49°12' W 123°08'0 0.0
2018-Feb-12 00:00N 49°12' W 123°08'0 0.0
2018-Feb-11 23:30N 49°12' W 123°08'0 0.0
2018-Feb-11 23:00N 49°12' W 123°08'0 0.0
2018-Feb-11 22:30N 49°12' W 123°08'0 0.0
2018-Feb-11 22:00N 49°12' W 123°08'0 0.0
2018-Feb-11 21:30N 49°12' W 123°08'0 0.0
2018-Feb-11 21:00N 49°12' W 123°08'0 0.0
2018-Feb-11 20:30N 49°12' W 123°08'0 0.0
2018-Feb-11 19:59N 49°12' W 123°08'0 0.0
2018-Feb-11 19:30N 49°12' W 123°08'0 0.0
2018-Feb-11 19:00N 49°12' W 123°08'0 0.0
2018-Feb-11 18:29N 49°12' W 123°08'0 0.0
2018-Feb-11 18:00N 49°12' W 123°08'0 0.0
2018-Feb-11 17:29N 49°12' W 123°08'0 0.0
2018-Feb-11 16:58N 49°12' W 123°08'0 0.0
2018-Feb-11 16:28N 49°12' W 123°08'0 0.0
2018-Feb-11 16:00N 49°12' W 123°08'0 0.0
2018-Feb-11 15:30N 49°12' W 123°08'0 0.0
2018-Feb-11 14:59N 49°12' W 123°08'0 0.0
2018-Feb-11 14:28N 49°12' W 123°08'0 0.0
2018-Feb-11 14:00N 49°12' W 123°08'0 0.0
2018-Feb-11 13:30N 49°12' W 123°08'0 0.0
2018-Feb-11 13:00N 49°12' W 123°08'0 0.0
2018-Feb-11 12:30N 49°12' W 123°08'0 0.0
2018-Feb-11 12:00N 49°12' W 123°08'0 0.0
2018-Feb-11 11:30N 49°12' W 123°08'0 0.0
2018-Feb-11 11:00N 49°12' W 123°08'0 0.0
2018-Feb-11 10:30N 49°12' W 123°08'0 0.0
2018-Feb-11 10:00N 49°12' W 123°08'0 0.0
2018-Feb-11 09:30N 49°12' W 123°08'0 0.0
2018-Feb-11 09:00N 49°12' W 123°08'0 0.0
2018-Feb-11 08:30N 49°12' W 123°08'0 0.0
2018-Feb-11 07:59N 49°12' W 123°08'0 0.0
2018-Feb-11 07:30N 49°12' W 123°08'0 0.0
2018-Feb-11 07:00N 49°12' W 123°08'0 0.0
2018-Feb-11 06:30N 49°12' W 123°08'0 0.0
2018-Feb-11 05:59N 49°12' W 123°08'1 2.9
2018-Feb-11 05:30N 49°13' W 123°10'4 8.0
2018-Feb-11 05:00N 49°15' W 123°15'1 2.5
2018-Feb-11 04:30N 49°15' W 123°17'3 6.2
2018-Feb-11 04:00N 49°14' W 123°13'3 6.3
2018-Feb-11 03:28N 49°12' W 123°08'3 5.5
2018-Feb-11 03:00N 49°12' W 123°04'1 1.3
2018-Feb-11 02:30N 49°12' W 123°05'3 5.1
2018-Feb-11 02:00N 49°12' W 123°09'3 7.1
2018-Feb-11 01:30N 49°14' W 123°14'3 4.9
2018-Feb-11 00:59N 49°14' W 123°18'5 9.8
2018-Feb-11 00:30N 49°09' W 123°19'5 9.6
2018-Feb-11 00:00N 49°04' W 123°20'5 9.4
2018-Feb-10 23:28N 48°59' W 123°19'5 9.5
2018-Feb-10 22:58N 48°55' W 123°18'3 7.3
2018-Feb-10 22:30N 48°51' W 123°20'3 6.6
2018-Feb-10 22:00N 48°48' W 123°21'5 9.1
2018-Feb-10 21:30N 48°44' W 123°24'5 9.7
2018-Feb-10 21:00N 48°41' W 123°30'5 9.8
2018-Feb-10 20:30N 48°36' W 123°31'1 2.3
2018-Feb-10 20:00N 48°35' W 123°31'3 5.2
2018-Feb-10 19:30N 48°38' W 123°30'4 7.3
2018-Feb-10 19:00N 48°41' W 123°30'4 7.4
2018-Feb-10 18:30N 48°44' W 123°25'4 7.3
2018-Feb-10 18:00N 48°46' W 123°22'4 7.5
2018-Feb-10 17:29N 48°50' W 123°21'2 4.9
2018-Feb-10 17:00N 48°52' W 123°19'3 5.6
2018-Feb-10 16:30N 48°55' W 123°18'3 6.9
2018-Feb-10 16:00N 48°58' W 123°19'3 6.9
2018-Feb-10 15:30N 49°02' W 123°19'3 6.9
2018-Feb-10 15:00N 49°05' W 123°20'3 5.8
2018-Feb-10 14:29N 49°07' W 123°17'3 6.2
2018-Feb-10 13:58N 49°07' W 123°12'3 6.8
2018-Feb-10 13:29N 49°07' W 123°07'3 6.5
2018-Feb-10 13:00N 49°09' W 123°03'1 2.9
2018-Feb-10 12:30N 49°09' W 123°01'4 7.7
2018-Feb-10 12:00N 49°11' W 122°55'4 7.1
2018-Feb-10 11:30N 49°13' W 122°51'4 7.7
2018-Feb-10 11:00N 49°14' W 122°46'3 7.1
2018-Feb-10 10:30N 49°17' W 122°42'2 3.2
2018-Feb-10 10:00N 49°17' W 122°40'3 6.6
2018-Feb-10 09:30N 49°15' W 122°44'3 6.3
2018-Feb-10 08:59N 49°13' W 122°48'1 2.5
2018-Feb-10 08:30N 49°13' W 122°50'4 7.8
2018-Feb-10 07:59N 49°15' W 122°44'3 5.6
2018-Feb-10 07:30N 49°17' W 122°42'2 4.5
2018-Feb-10 07:00N 49°19' W 122°40'1 1.4
2018-Feb-10 06:30N 49°18' W 122°40'2 3.4
2018-Feb-10 06:00N 49°17' W 122°42'3 5.4
2018-Feb-10 05:30N 49°15' W 122°44'3 4.9
2018-Feb-10 04:57N 49°13' W 122°48'2 5.0
2018-Feb-10 04:30N 49°13' W 122°51'2 4.4
2018-Feb-10 03:59N 49°12' W 122°54'2 4.4
2018-Feb-10 03:30N 49°12' W 122°57'2 3.7
2018-Feb-10 03:00N 49°11' W 123°00'3 5.9
2018-Feb-10 02:28N 49°12' W 123°05'3 5.6
2018-Feb-10 02:00N 49°12' W 123°09'3 5.1
2018-Feb-10 01:30N 49°13' W 123°12'3 5.2
2018-Feb-10 01:00N 49°15' W 123°15'0 0.3
2018-Feb-10 00:30N 49°15' W 123°16'4 8.8
2018-Feb-10 00:00N 49°13' W 123°10'5 9.3
2018-Feb-09 23:30N 49°12' W 123°03'4 8.1
2018-Feb-09 23:00N 49°12' W 122°57'1 5.4
2018-Feb-09 22:46N 49°11' W 122°55'1 0.2
2018-Feb-09 19:30N 49°11' W 122°55'24 4.8
2018-Feb-09 14:30N 49°13' W 123°32'6 5.6
2018-Feb-09 13:30N 49°16' W 123°39'11 1.1
2018-Feb-09 03:30N 49°17' W 123°22'18 4.0
2018-Feb-08 23:00N 49°11' W 122°55'8 1.7
2018-Feb-08 18:30N 49°07' W 123°06'6 4.1
2018-Feb-08 17:00N 49°07' W 123°15'2 4.2
2018-Feb-08 16:30N 49°06' W 123°18'1 2.5
2018-Feb-08 16:00N 49°06' W 123°20'10 4.1
2018-Feb-08 13:30N 49°12' W 123°33'  

Dump ship's entire track history